RJNY(METAR)
05/30 17:00
METAR RJNY 300800Z 15006KT 120V180 9999 FEW020 BKN230 23/18 Q1020
RMK 1CU020 A3012=
戻る
トップページへ戻る
IMOC Co,.Ltd.